createdAt,value
2018-03-23T00:00:28.225Z,93.41
2018-03-23T00:02:55.805Z,93.52
2018-03-23T00:05:23.460Z,93.57
2018-03-23T00:07:51.042Z,93.64
2018-03-23T00:10:18.632Z,93.74
2018-03-23T00:12:46.621Z,93.82
2018-03-23T00:15:14.488Z,93.94
2018-03-23T00:17:44.536Z,93.96
2018-03-23T00:20:12.605Z,94.04
2018-03-23T00:22:40.548Z,94.07
2018-03-23T00:25:08.620Z,94.09
2018-03-23T00:27:36.340Z,94.10
2018-03-23T00:30:03.981Z,94.20
2018-03-23T00:32:31.597Z,94.28
2018-03-23T00:34:59.574Z,94.48
2018-03-23T00:37:27.228Z,94.58
2018-03-23T00:39:54.818Z,94.60
2018-03-23T00:42:22.465Z,94.62
2018-03-23T00:44:50.049Z,94.94
2018-03-23T00:47:17.884Z,94.89
2018-03-23T00:49:45.567Z,94.92
2018-03-23T00:52:13.399Z,94.93
2018-03-23T00:54:41.033Z,94.98
2018-03-23T00:57:08.953Z,94.95
2018-03-23T00:59:36.545Z,94.91
2018-03-23T01:02:04.536Z,94.88
2018-03-23T01:04:32.111Z,94.86
2018-03-23T01:06:59.684Z,94.83
2018-03-23T01:09:27.362Z,94.76
2018-03-23T01:11:55.234Z,94.68
2018-03-23T01:14:22.835Z,94.58
2018-03-23T01:16:50.478Z,94.56
2018-03-23T01:19:18.289Z,94.52
2018-03-23T01:21:45.895Z,94.49
2018-03-23T01:24:13.550Z,94.42
2018-03-23T01:26:41.389Z,94.41
2018-03-23T01:29:09.047Z,94.42
2018-03-23T01:31:37.005Z,94.41
2018-03-23T01:34:04.839Z,94.34
2018-03-23T01:36:32.703Z,94.25
2018-03-23T01:39:00.641Z,94.19
2018-03-23T01:41:28.245Z,94.16
2018-03-23T01:43:55.840Z,94.11
2018-03-23T01:46:23.555Z,94.05
2018-03-23T01:48:51.200Z,94.05
2018-03-23T01:51:18.794Z,94.07
2018-03-23T01:53:46.429Z,94.11
2018-03-23T01:56:14.244Z,94.11
2018-03-23T01:58:41.909Z,94.09
2018-03-23T02:01:10.110Z,94.12
2018-03-23T02:03:37.712Z,94.11
2018-03-23T02:06:05.640Z,94.15
2018-03-23T02:08:33.612Z,94.16
2018-03-23T02:11:01.229Z,94.17
2018-03-23T02:13:28.889Z,94.17
2018-03-23T02:15:56.920Z,94.16
2018-03-23T02:18:24.513Z,94.12
2018-03-23T02:20:52.230Z,94.10
2018-03-23T02:23:19.930Z,94.13
2018-03-23T02:25:47.867Z,94.15
2018-03-23T02:28:15.479Z,94.32
2018-03-23T02:30:43.201Z,94.40
2018-03-23T02:33:10.803Z,94.35
2018-03-23T02:35:38.378Z,94.40
2018-03-23T02:38:06.376Z,94.38
2018-03-23T02:40:33.952Z,94.37
2018-03-23T02:43:01.848Z,94.33
2018-03-23T02:45:29.852Z,94.29
2018-03-23T02:47:57.461Z,94.29
2018-03-23T02:50:25.065Z,94.28
2018-03-23T02:52:52.724Z,94.28
2018-03-23T02:55:20.325Z,94.29
2018-03-23T02:57:47.931Z,94.37
2018-03-23T03:00:15.581Z,94.33
2018-03-23T03:02:43.222Z,94.31
2018-03-23T03:05:10.887Z,94.34
2018-03-23T03:07:38.460Z,94.36
2018-03-23T03:10:06.366Z,94.36
2018-03-23T03:12:34.186Z,94.45
2018-03-23T03:15:01.864Z,94.49
2018-03-23T03:17:29.584Z,94.51
2018-03-23T03:19:57.177Z,94.55
2018-03-23T03:22:24.786Z,94.51
2018-03-23T03:24:52.496Z,94.58
2018-03-23T03:27:20.092Z,94.60
2018-03-23T03:29:47.675Z,94.56
2018-03-23T03:32:15.366Z,94.54
2018-03-23T03:34:42.951Z,94.54
2018-03-23T03:37:10.889Z,94.51
2018-03-23T03:39:38.474Z,94.48
2018-03-23T03:42:06.360Z,94.42
2018-03-23T03:44:33.980Z,94.36
2018-03-23T03:47:01.573Z,94.32
2018-03-23T03:49:29.570Z,94.32
2018-03-23T03:51:57.174Z,94.28
2018-03-23T03:54:24.784Z,94.21
2018-03-23T03:56:52.707Z,94.21
2018-03-23T03:59:20.304Z,94.21
2018-03-23T04:01:47.994Z,94.19
2018-03-23T04:04:15.603Z,94.19
2018-03-23T04:06:43.214Z,94.17
2018-03-23T04:09:11.110Z,94.18
2018-03-23T04:11:38.720Z,94.14
2018-03-23T04:14:06.330Z,94.14
2018-03-23T04:16:34.011Z,94.13
2018-03-23T04:19:01.878Z,94.16
2018-03-23T04:21:29.485Z,94.14
2018-03-23T04:23:57.465Z,94.16
2018-03-23T04:26:25.152Z,94.16
2018-03-23T04:28:52.729Z,94.14
2018-03-23T04:31:20.349Z,94.12
2018-03-23T04:33:47.989Z,94.06
2018-03-23T04:36:15.618Z,94.04
2018-03-23T04:38:43.445Z,94.06
2018-03-23T04:41:11.049Z,94.10
2018-03-23T04:43:38.651Z,94.32
2018-03-23T04:46:06.666Z,94.47
2018-03-23T04:48:34.277Z,94.38
2018-03-23T04:51:01.865Z,94.45
2018-03-23T04:53:29.922Z,94.40
2018-03-23T04:55:57.502Z,94.35
2018-03-23T04:58:25.388Z,94.29
2018-03-23T05:00:53.526Z,94.24
2018-03-23T05:03:21.099Z,94.21
2018-03-23T05:05:48.704Z,94.20
2018-03-23T05:08:16.307Z,94.21
2018-03-23T05:10:44.415Z,94.19
2018-03-23T05:13:12.059Z,94.20
2018-03-23T05:15:39.733Z,94.19
2018-03-23T05:18:07.325Z,94.10
2018-03-23T05:20:35.474Z,94.11
2018-03-23T05:23:03.063Z,94.08
2018-03-23T05:25:30.662Z,94.05
2018-03-23T05:27:58.293Z,94.02
2018-03-23T05:30:25.975Z,94.02
2018-03-23T05:32:53.563Z,94.01
2018-03-23T05:35:21.163Z,93.98
2018-03-23T05:37:49.182Z,93.99
2018-03-23T05:40:16.781Z,94.02
2018-03-23T05:42:44.418Z,93.99
2018-03-23T05:45:12.043Z,93.99
2018-03-23T05:47:39.695Z,93.99
2018-03-23T05:50:07.320Z,93.99
2018-03-23T05:52:34.957Z,94.00
2018-03-23T05:55:02.595Z,94.05
2018-03-23T05:57:30.186Z,94.05
2018-03-23T05:59:57.778Z,94.10
2018-03-23T06:02:25.430Z,94.20
2018-03-23T06:04:53.078Z,94.26
2018-03-23T06:07:20.665Z,94.37
2018-03-23T06:09:48.292Z,94.39
2018-03-23T06:12:15.993Z,94.39
2018-03-23T06:14:43.602Z,94.44
2018-03-23T06:17:11.607Z,94.46
2018-03-23T06:19:39.209Z,94.49
2018-03-23T06:22:07.051Z,94.54
2018-03-23T06:24:35.174Z,94.57
2018-03-23T06:27:02.769Z,94.59
2018-03-23T06:29:30.557Z,94.64
2018-03-23T06:31:58.180Z,94.67
2018-03-23T06:34:26.257Z,94.71
2018-03-23T06:36:53.860Z,94.76
2018-03-23T06:39:21.449Z,94.79
2018-03-23T06:41:49.094Z,94.82
2018-03-23T06:44:16.679Z,94.96
2018-03-23T06:46:44.331Z,94.97
2018-03-23T06:49:12.122Z,95.02
2018-03-23T06:51:44.096Z,95.08
2018-03-23T06:54:11.728Z,95.17
2018-03-23T06:56:39.425Z,95.18
2018-03-23T06:59:07.080Z,95.18
2018-03-23T07:01:34.870Z,95.22
2018-03-23T07:04:02.476Z,95.23
2018-03-23T07:06:30.070Z,95.22
2018-03-23T07:08:57.749Z,95.22
2018-03-23T07:11:25.780Z,95.29
2018-03-23T07:13:53.680Z,95.26
2018-03-23T07:16:21.281Z,95.28
2018-03-23T07:18:48.939Z,95.28
2018-03-23T07:21:16.798Z,95.28
2018-03-23T07:23:44.849Z,95.44
2018-03-23T07:26:13.114Z,95.48
2018-03-23T07:28:40.720Z,95.67
2018-03-23T07:31:08.301Z,95.80
2018-03-23T07:33:36.617Z,95.94
2018-03-23T07:36:04.267Z,96.14
2018-03-23T07:38:32.101Z,96.22
2018-03-23T07:41:00.176Z,96.19
2018-03-23T07:43:27.845Z,96.16
2018-03-23T07:45:55.423Z,96.14
2018-03-23T07:48:23.042Z,96.18
2018-03-23T07:50:51.477Z,96.21
2018-03-23T07:53:19.198Z,96.26
2018-03-23T07:55:47.116Z,96.22
2018-03-23T07:58:14.701Z,96.20
2018-03-23T08:00:42.742Z,96.20
2018-03-23T08:03:10.377Z,96.16
2018-03-23T08:05:37.977Z,96.08
2018-03-23T08:08:05.651Z,95.97
2018-03-23T08:10:33.317Z,95.93
2018-03-23T08:13:00.974Z,95.91
2018-03-23T08:15:28.984Z,95.85
2018-03-23T08:17:56.585Z,95.72
2018-03-23T08:20:24.185Z,95.67
2018-03-23T08:22:52.276Z,95.57
2018-03-23T08:25:19.880Z,95.41
2018-03-23T08:27:47.488Z,95.25
2018-03-23T08:30:15.310Z,94.99
2018-03-23T08:32:42.952Z,94.81
2018-03-23T08:35:10.836Z,94.74
2018-03-23T08:37:38.544Z,94.45
2018-03-23T08:40:06.152Z,94.13
2018-03-23T08:42:33.767Z,93.97
2018-03-23T08:45:01.795Z,93.95
2018-03-23T08:47:29.390Z,93.68
2018-03-23T08:49:57.731Z,93.11
2018-03-23T08:52:25.386Z,92.39
2018-03-23T08:54:52.976Z,92.19
2018-03-23T08:57:20.841Z,92.04
2018-03-23T08:59:48.454Z,92.28
2018-03-23T09:02:16.279Z,92.52
2018-03-23T09:04:43.870Z,92.62
2018-03-23T09:07:11.481Z,92.60
2018-03-23T09:09:39.351Z,92.44
2018-03-23T09:12:07.115Z,92.14
2018-03-23T09:14:34.842Z,92.10
2018-03-23T09:17:02.684Z,92.06
2018-03-23T09:19:30.395Z,92.00
2018-03-23T09:21:58.059Z,92.04
2018-03-23T09:24:25.965Z,91.17
2018-03-23T09:26:53.572Z,90.65
2018-03-23T09:29:21.167Z,89.83
2018-03-23T09:31:48.792Z,89.44
2018-03-23T09:34:16.467Z,87.16
2018-03-23T09:36:44.099Z,86.81
2018-03-23T09:39:11.693Z,86.87
2018-03-23T09:41:39.344Z,86.21
2018-03-23T09:44:07.167Z,86.14
2018-03-23T09:46:34.872Z,86.33
2018-03-23T09:49:02.609Z,85.07
2018-03-23T09:51:30.241Z,84.10
2018-03-23T09:53:57.819Z,85.23
2018-03-23T09:56:25.655Z,84.39
2018-03-23T09:58:53.610Z,84.64
2018-03-23T10:01:21.271Z,84.57
2018-03-23T10:03:48.920Z,83.36
2018-03-23T10:06:16.524Z,82.77
2018-03-23T10:08:45.363Z,81.98
2018-03-23T10:11:12.991Z,81.52
2018-03-23T10:13:40.592Z,82.35
2018-03-23T10:16:08.776Z,81.83
2018-03-23T10:18:36.353Z,81.41
2018-03-23T10:21:03.951Z,82.14
2018-03-23T10:23:31.642Z,82.34
2018-03-23T10:25:59.248Z,81.33
2018-03-23T10:28:26.863Z,82.63
2018-03-23T10:30:55.317Z,79.52
2018-03-23T10:33:23.339Z,79.16
2018-03-23T10:35:51.361Z,80.50
2018-03-23T10:38:18.949Z,79.26
2018-03-23T10:40:46.534Z,78.28
2018-03-23T10:43:14.171Z,79.33
2018-03-23T10:45:42.115Z,78.26
2018-03-23T10:48:09.682Z,78.67
2018-03-23T10:50:37.383Z,79.09
2018-03-23T10:53:04.965Z,80.08
2018-03-23T10:55:32.911Z,79.99
2018-03-23T10:58:07.411Z,78.77
2018-03-23T11:00:40.523Z,79.06
2018-03-23T11:03:08.228Z,79.33
2018-03-23T11:05:35.823Z,78.13
2018-03-23T11:08:03.491Z,77.69
2018-03-23T11:10:31.137Z,78.82
2018-03-23T11:12:59.029Z,78.60
2018-03-23T11:15:26.608Z,79.29
2018-03-23T11:17:54.342Z,79.88
2018-03-23T11:20:22.240Z,80.30
2018-03-23T11:22:49.829Z,80.63
2018-03-23T11:25:17.541Z,79.83
2018-03-23T11:27:45.211Z,79.16
2018-03-23T11:30:13.103Z,79.53
2018-03-23T11:32:40.780Z,79.54
2018-03-23T11:35:08.354Z,78.22
2018-03-23T11:37:35.941Z,79.17
2018-03-23T11:40:03.840Z,79.58
2018-03-23T11:42:31.432Z,78.38
2018-03-23T11:44:59.049Z,78.39
2018-03-23T11:47:27.032Z,78.97
2018-03-23T11:49:54.748Z,79.22
2018-03-23T11:52:22.403Z,79.24
2018-03-23T11:54:49.998Z,79.19
2018-03-23T11:57:18.014Z,79.14
2018-03-23T11:59:45.660Z,79.85
2018-03-23T12:02:13.359Z,80.11
2018-03-23T12:04:41.006Z,78.81
2018-03-23T12:07:08.607Z,79.42
2018-03-23T12:09:36.604Z,79.35
2018-03-23T12:12:04.194Z,79.31
2018-03-23T12:14:32.711Z,79.02
2018-03-23T12:17:00.373Z,78.17
2018-03-23T12:19:27.961Z,77.32
2018-03-23T12:21:55.547Z,77.77
2018-03-23T12:24:23.182Z,77.30
2018-03-23T12:26:50.915Z,76.31
2018-03-23T12:29:18.479Z,76.22
2018-03-23T12:31:46.121Z,76.29
2018-03-23T12:34:13.704Z,75.66
2018-03-23T12:36:41.315Z,76.51
2018-03-23T12:39:08.947Z,76.42
2018-03-23T12:41:36.543Z,75.85
2018-03-23T12:44:04.138Z,75.78
2018-03-23T12:46:31.751Z,76.33
2018-03-23T12:48:59.345Z,75.42
2018-03-23T12:51:27.357Z,75.68
2018-03-23T12:53:55.248Z,74.88
2018-03-23T12:56:23.419Z,75.43
2018-03-23T12:58:51.129Z,74.74
2018-03-23T13:01:18.771Z,74.90
2018-03-23T13:03:46.494Z,74.21
2018-03-23T13:06:14.436Z,75.25
2018-03-23T13:08:42.095Z,76.26
2018-03-23T13:11:09.681Z,76.67
2018-03-23T13:13:37.394Z,76.67
2018-03-23T13:16:04.977Z,76.87
2018-03-23T13:18:32.636Z,76.12
2018-03-23T13:21:00.307Z,76.27
2018-03-23T13:23:27.906Z,75.74
2018-03-23T13:25:55.511Z,75.41
2018-03-23T13:28:23.127Z,75.65
2018-03-23T13:30:50.711Z,75.49
2018-03-23T13:33:18.413Z,75.99
2018-03-23T13:35:46.011Z,76.43
2018-03-23T13:38:13.606Z,76.32
2018-03-23T13:40:41.397Z,75.66
2018-03-23T13:43:09.041Z,75.64
2018-03-23T13:45:36.634Z,76.48
2018-03-23T13:48:04.307Z,76.41
2018-03-23T13:50:31.930Z,76.31
2018-03-23T13:52:59.514Z,75.47
2018-03-23T13:55:27.419Z,75.76
2018-03-23T13:57:55.078Z,75.85
2018-03-23T14:00:28.201Z,76.36
2018-03-23T14:02:55.810Z,75.34
2018-03-23T14:05:23.450Z,76.27
2018-03-23T14:07:51.154Z,76.16
2018-03-23T14:10:18.786Z,75.71
2018-03-23T14:12:46.387Z,76.08
2018-03-23T14:15:14.246Z,76.10
2018-03-23T14:17:42.427Z,75.98
2018-03-23T14:20:10.046Z,76.50
2018-03-23T14:22:37.766Z,76.42
2018-03-23T14:25:05.768Z,76.15
2018-03-23T14:27:33.332Z,75.91
2018-03-23T14:30:00.940Z,75.76
2018-03-23T14:32:28.678Z,76.06
2018-03-23T14:34:56.354Z,75.72
2018-03-23T14:37:23.933Z,76.34
2018-03-23T14:39:51.558Z,76.66
2018-03-23T14:42:19.460Z,76.76
2018-03-23T14:44:47.139Z,76.07
2018-03-23T14:47:15.090Z,75.79
2018-03-23T14:49:43.220Z,75.46
2018-03-23T14:52:10.810Z,74.98
2018-03-23T14:54:38.724Z,74.43
2018-03-23T14:57:06.365Z,75.10
2018-03-23T14:59:34.771Z,74.89
2018-03-23T15:02:02.354Z,75.25
2018-03-23T15:04:29.991Z,75.48
2018-03-23T15:06:57.828Z,74.56
2018-03-23T15:09:25.476Z,74.13
2018-03-23T15:11:53.072Z,74.33
2018-03-23T15:14:20.664Z,74.87
2018-03-23T15:16:48.445Z,75.18
2018-03-23T15:19:16.025Z,75.25
2018-03-23T15:21:43.914Z,74.52
2018-03-23T15:24:11.485Z,73.97
2018-03-23T15:26:39.529Z,74.53
2018-03-23T15:29:07.146Z,73.77
2018-03-23T15:31:34.725Z,74.06
2018-03-23T15:34:02.646Z,74.37
2018-03-23T15:36:30.225Z,74.32
2018-03-23T15:38:57.866Z,74.68
2018-03-23T15:41:25.506Z,75.74
2018-03-23T15:43:53.106Z,76.30
2018-03-23T15:46:20.746Z,75.36
2018-03-23T15:48:48.512Z,74.62
2018-03-23T15:51:16.200Z,75.06
2018-03-23T15:53:43.864Z,74.97
2018-03-23T15:56:11.458Z,74.80
2018-03-23T15:58:39.469Z,75.58
2018-03-23T16:01:08.068Z,74.45
2018-03-23T16:03:42.672Z,74.58
2018-03-23T16:06:10.348Z,75.25
2018-03-23T16:08:38.091Z,74.29
2018-03-23T16:11:05.820Z,74.53
2018-03-23T16:13:33.414Z,73.47
2018-03-23T16:16:01.059Z,74.18
2018-03-23T16:18:29.154Z,74.11
2018-03-23T16:20:57.111Z,73.52
2018-03-23T16:23:24.685Z,73.62
2018-03-23T16:25:52.745Z,73.92
2018-03-23T16:28:20.365Z,73.28
2018-03-23T16:30:48.273Z,73.87
2018-03-23T16:33:16.113Z,74.22
2018-03-23T16:35:43.762Z,73.90
2018-03-23T16:38:11.671Z,74.02
2018-03-23T16:40:39.285Z,74.21
2018-03-23T16:43:06.913Z,73.75
2018-03-23T16:45:34.569Z,74.12
2018-03-23T16:48:02.188Z,73.96
2018-03-23T16:50:30.257Z,74.19
2018-03-23T16:52:57.897Z,74.25
2018-03-23T16:55:26.080Z,74.53
2018-03-23T16:57:53.834Z,74.77
2018-03-23T17:00:21.559Z,75.20
2018-03-23T17:02:49.170Z,74.95
2018-03-23T17:05:17.181Z,74.94
2018-03-23T17:07:44.857Z,75.46
2018-03-23T17:10:12.462Z,75.73
2018-03-23T17:12:40.144Z,75.87
2018-03-23T17:15:07.743Z,75.99
2018-03-23T17:17:35.349Z,75.96
2018-03-23T17:20:03.062Z,76.28
2018-03-23T17:22:30.806Z,76.63
2018-03-23T17:24:58.520Z,76.64
2018-03-23T17:27:26.200Z,75.80
2018-03-23T17:29:53.819Z,76.09
2018-03-23T17:32:21.405Z,76.15
2018-03-23T17:34:49.233Z,76.45
2018-03-23T17:37:17.202Z,76.45
2018-03-23T17:39:44.804Z,76.52
2018-03-23T17:42:12.484Z,76.89
2018-03-23T17:44:40.081Z,77.22
2018-03-23T17:47:07.740Z,77.33
2018-03-23T17:49:35.736Z,77.41
2018-03-23T17:52:03.492Z,77.65
2018-03-23T17:54:31.200Z,77.61
2018-03-23T17:56:58.906Z,77.67
2018-03-23T17:59:26.585Z,77.79
2018-03-23T18:01:54.319Z,77.77
2018-03-23T18:04:22.263Z,77.85
2018-03-23T18:06:49.963Z,77.87
2018-03-23T18:09:17.679Z,77.94
2018-03-23T18:11:45.696Z,78.21
2018-03-23T18:14:13.441Z,78.23
2018-03-23T18:16:41.037Z,78.45
2018-03-23T18:19:08.882Z,78.41
2018-03-23T18:21:37.072Z,78.74
2018-03-23T18:24:05.502Z,78.74
2018-03-23T18:26:33.729Z,78.97
2018-03-23T18:29:01.849Z,79.27
2018-03-23T18:31:30.332Z,79.28
2018-03-23T18:33:57.951Z,79.35
2018-03-23T18:36:25.551Z,79.39
2018-03-23T18:38:53.329Z,79.44
2018-03-23T18:41:20.955Z,79.50
2018-03-23T18:43:48.622Z,79.49
2018-03-23T18:46:16.539Z,79.69
2018-03-23T18:48:44.210Z,79.84
2018-03-23T18:51:11.879Z,79.92
2018-03-23T18:53:39.925Z,79.68
2018-03-23T18:56:07.527Z,79.58
2018-03-23T18:58:35.169Z,79.63
2018-03-23T19:01:03.158Z,79.64
2018-03-23T19:03:30.754Z,79.69
2018-03-23T19:05:58.720Z,79.79
2018-03-23T19:08:26.351Z,79.77
2018-03-23T19:10:54.017Z,79.81
2018-03-23T19:13:21.676Z,79.83
2018-03-23T19:15:49.379Z,80.20
2018-03-23T19:18:17.305Z,80.26
2018-03-23T19:20:44.889Z,80.41
2018-03-23T19:23:12.603Z,80.51
2018-03-23T19:25:40.597Z,80.46
2018-03-23T19:28:08.420Z,80.52
2018-03-23T19:30:36.091Z,80.60
2018-03-23T19:33:03.793Z,80.74
2018-03-23T19:35:31.467Z,80.85
2018-03-23T19:37:59.100Z,81.17
2018-03-23T19:40:26.802Z,81.11
2018-03-23T19:42:54.926Z,81.42
2018-03-23T19:45:22.535Z,81.47
2018-03-23T19:47:50.380Z,81.58
2018-03-23T19:50:18.266Z,81.59
2018-03-23T19:52:46.217Z,81.54
2018-03-23T19:55:13.921Z,81.68
2018-03-23T19:57:41.579Z,81.70
2018-03-23T20:00:09.510Z,81.73
2018-03-23T20:02:37.119Z,81.73
2018-03-23T20:05:04.826Z,81.97
2018-03-23T20:07:32.423Z,82.07
2018-03-23T20:10:00.027Z,82.33
2018-03-23T20:12:27.897Z,82.58
2018-03-23T20:14:55.569Z,82.48
2018-03-23T20:17:28.911Z,83.26
2018-03-23T20:19:56.701Z,83.33
2018-03-23T20:22:24.348Z,83.91
2018-03-23T20:24:51.982Z,84.27
2018-03-23T20:27:25.474Z,84.56
2018-03-23T20:29:53.093Z,84.94
2018-03-23T20:32:26.222Z,85.34
2018-03-23T20:34:53.814Z,85.63
2018-03-23T20:37:21.423Z,85.97
2018-03-23T20:39:49.080Z,85.99
2018-03-23T20:42:16.681Z,86.34
2018-03-23T20:44:44.277Z,86.10
2018-03-23T20:47:11.971Z,86.05
2018-03-23T20:49:39.839Z,86.09
2018-03-23T20:52:07.519Z,86.27
2018-03-23T20:54:35.271Z,86.49
2018-03-23T20:57:02.989Z,86.76
2018-03-23T20:59:30.599Z,86.84
2018-03-23T21:01:58.209Z,86.96
2018-03-23T21:04:25.880Z,87.12
2018-03-23T21:06:53.543Z,87.09
2018-03-23T21:09:21.144Z,87.19
2018-03-23T21:11:49.228Z,87.64
2018-03-23T21:14:16.981Z,87.65
2018-03-23T21:16:44.596Z,87.76
2018-03-23T21:19:12.226Z,87.79
2018-03-23T21:21:39.912Z,88.03
2018-03-23T21:24:08.021Z,87.96
2018-03-23T21:26:35.624Z,88.10
2018-03-23T21:29:03.217Z,88.16
2018-03-23T21:31:30.924Z,88.48
2018-03-23T21:33:58.666Z,88.52
2018-03-23T21:36:26.267Z,88.50
2018-03-23T21:38:53.911Z,88.48
2018-03-23T21:41:21.581Z,88.33
2018-03-23T21:43:49.478Z,88.62
2018-03-23T21:46:17.068Z,88.71
2018-03-23T21:48:44.821Z,88.67
2018-03-23T21:51:12.435Z,88.62
2018-03-23T21:53:40.029Z,88.49
2018-03-23T21:56:07.692Z,88.55
2018-03-23T21:58:35.319Z,88.54
2018-03-23T22:01:02.909Z,88.47
2018-03-23T22:03:30.633Z,88.33
2018-03-23T22:05:58.243Z,88.15
2018-03-23T22:08:25.919Z,88.04
2018-03-23T22:10:53.787Z,87.93
2018-03-23T22:13:21.674Z,87.80
2018-03-23T22:15:49.272Z,87.71
2018-03-23T22:18:18.429Z,87.61
2018-03-23T22:20:46.510Z,87.46
2018-03-23T22:23:14.141Z,87.41
2018-03-23T22:25:41.793Z,87.32
2018-03-23T22:28:09.432Z,87.25
2018-03-23T22:30:37.396Z,87.12
2018-03-23T22:33:05.062Z,87.02
2018-03-23T22:35:32.700Z,87.02
2018-03-23T22:38:00.446Z,87.05
2018-03-23T22:40:28.054Z,87.08
2018-03-23T22:42:57.060Z,87.10
2018-03-23T22:45:24.688Z,87.03
2018-03-23T22:47:52.357Z,86.91
2018-03-23T22:50:20.046Z,86.81
2018-03-23T22:52:47.714Z,86.73
2018-03-23T22:55:15.667Z,86.61
2018-03-23T22:57:43.260Z,86.50
2018-03-23T23:00:10.877Z,86.43
2018-03-23T23:02:38.949Z,86.29
2018-03-23T23:05:06.841Z,86.19
2018-03-23T23:07:34.472Z,86.09
2018-03-23T23:10:02.387Z,86.01
2018-03-23T23:12:30.082Z,85.93
2018-03-23T23:14:57.861Z,86.01
2018-03-23T23:17:25.760Z,86.03
2018-03-23T23:19:53.563Z,85.93
2018-03-23T23:22:21.230Z,85.80
2018-03-23T23:24:48.860Z,85.76
2018-03-23T23:27:16.475Z,85.72
2018-03-23T23:29:44.299Z,85.66
2018-03-23T23:32:12.257Z,85.60
2018-03-23T23:34:39.962Z,85.61
2018-03-23T23:37:07.582Z,85.57
2018-03-23T23:39:35.218Z,85.52
2018-03-23T23:42:02.814Z,85.50
2018-03-23T23:44:30.470Z,85.47
2018-03-23T23:46:58.069Z,85.50
2018-03-23T23:49:25.648Z,85.52
2018-03-23T23:51:53.339Z,85.54
2018-03-23T23:54:21.078Z,85.63
2018-03-23T23:56:48.680Z,85.70
2018-03-23T23:59:16.747Z,85.83
